Time;durP1;ratioP1;P1;durP2;ratioP2;P2;SDS_P1;SDS_P2;PMS_P1;PMS_P2;Temp;Humidity;BMP_temperature;BMP_pressure;BME280_temperature;BME280_humidity;BME280_pressure;Samples;Min_cycle;Max_cycle;Signal;HPM_P1;HPM_P2
2023/12/12 00:00:39;;;;;;;6.20;2.00;;;;;;;8.62;100.00;97578.81;5094054;28;20219;-74
2023/12/12 00:03:06;;;;;;;6.10;2.40;;;;;;;8.61;100.00;97583.31;5093990;28;20204;-74
2023/12/12 00:05:32;;;;;;;6.57;2.30;;;;;;;8.61;100.00;97582.50;5094061;28;20234;-74
2023/12/12 00:07:58;;;;;;;5.83;1.83;;;;;;;8.60;100.00;97578.25;5093887;28;20207;-74
2023/12/12 00:10:25;;;;;;;4.27;1.93;;;;;;;8.61;100.00;97579.84;5093773;28;20565;-74
2023/12/12 00:12:51;;;;;;;5.47;1.90;;;;;;;8.64;100.00;97579.44;5093662;28;20698;-74
2023/12/12 00:15:17;;;;;;;8.63;2.33;;;;;;;8.63;100.00;97575.13;5093518;28;20685;-74
2023/12/12 00:17:44;;;;;;;6.77;2.10;;;;;;;8.63;100.00;97575.13;5093558;28;20204;-74
2023/12/12 00:20:10;;;;;;;6.47;2.00;;;;;;;8.62;100.00;97581.47;5093762;28;20223;-74
2023/12/12 00:22:37;;;;;;;7.77;2.20;;;;;;;8.63;100.00;97585.72;5093804;28;20581;-74
2023/12/12 00:25:04;;;;;;;6.10;1.87;;;;;;;8.58;100.00;97578.44;5093678;28;20238;-74
2023/12/12 00:27:30;;;;;;;5.43;1.87;;;;;;;8.58;100.00;97577.63;5094000;28;20200;-74
2023/12/12 00:29:57;;;;;;;9.97;2.03;;;;;;;8.51;100.00;97582.19;5093686;28;20277;-74
2023/12/12 00:32:23;;;;;;;3.87;1.73;;;;;;;8.54;100.00;97584.38;5093347;28;20671;-74
2023/12/12 00:34:51;;;;;;;8.10;1.93;;;;;;;8.55;100.00;97593.97;5093562;28;20219;-74
2023/12/12 00:37:17;;;;;;;7.20;2.37;;;;;;;8.60;100.00;97588.84;5093642;28;20207;-74
2023/12/12 00:39:43;;;;;;;6.87;2.10;;;;;;;8.58;100.00;97588.22;5093513;28;20223;-74
2023/12/12 00:42:10;;;;;;;5.63;2.03;;;;;;;8.61;100.00;97582.50;5093810;28;20203;-74
2023/12/12 00:44:36;;;;;;;6.63;1.63;;;;;;;8.66;100.00;97594.06;5094953;28;20221;-74
2023/12/12 00:47:05;;;;;;;8.30;1.93;;;;;;;8.66;100.00;97590.59;5097635;28;20568;-74
2023/12/12 00:49:31;;;;;;;4.43;1.63;;;;;;;8.70;100.00;97591.78;5097694;28;20232;-74
2023/12/12 00:51:57;;;;;;;5.23;1.80;;;;;;;8.75;100.00;97590.13;5097656;28;20303;-74
2023/12/12 00:54:24;;;;;;;5.97;2.00;;;;;;;8.73;100.00;97588.72;5097307;28;20211;-74
2023/12/12 00:56:50;;;;;;;6.33;1.53;;;;;;;8.76;100.00;97596.22;5097261;28;20211;-74
2023/12/12 00:59:16;;;;;;;5.70;1.67;;;;;;;8.82;100.00;97582.91;5097409;28;20228;-74
2023/12/12 01:01:43;;;;;;;6.27;1.80;;;;;;;8.88;100.00;97582.00;5097539;28;20294;-74
2023/12/12 01:04:09;;;;;;;5.90;1.90;;;;;;;8.89;100.00;97586.31;5097506;28;20255;-74
2023/12/12 01:06:36;;;;;;;4.20;1.57;;;;;;;8.89;100.00;97588.97;5097013;28;20227;-74
2023/12/12 01:09:03;;;;;;;4.00;1.50;;;;;;;8.93;100.00;97581.38;5096884;28;20771;-74
2023/12/12 01:11:29;;;;;;;7.77;1.60;;;;;;;8.94;100.00;97577.69;5097126;28;20208;-74
2023/12/12 01:13:55;;;;;;;6.47;1.50;;;;;;;8.94;100.00;97582.97;5097385;28;20230;-74
2023/12/12 01:16:22;;;;;;;4.10;1.60;;;;;;;8.94;100.00;97582.97;5097292;28;20204;-74
2023/12/12 01:18:49;;;;;;;7.10;1.87;;;;;;;8.93;100.00;97597.28;5097169;28;20208;-74
2023/12/12 01:21:15;;;;;;;6.97;1.70;;;;;;;8.95;100.00;97596.03;5097199;28;20199;-74
2023/12/12 01:23:54;;;;;;;6.97;2.00;;;;;;;8.91;100.00;97586.88;5097142;28;20210;-74
2023/12/12 01:26:22;;;;;;;4.70;1.50;;;;;;;8.95;100.00;97592.56;5097953;28;20214;-74
2023/12/12 01:28:49;;;;;;;3.50;1.40;;;;;;;8.98;100.00;97582.34;5096980;28;20255;-74
2023/12/12 01:31:16;;;;;;;6.13;2.03;;;;;;;8.94;100.00;97580.34;5097091;28;20226;-74
2023/12/12 01:33:44;;;;;;;4.23;1.83;;;;;;;8.93;100.00;97584.03;5097263;28;20204;-74
2023/12/12 01:36:11;;;;;;;6.23;1.40;;;;;;;8.93;100.00;97587.50;5096532;28;20196;-74
2023/12/12 01:38:38;;;;;;;3.73;1.30;;;;;;;9.01;100.00;97581.09;5096767;28;20215;-74
2023/12/12 01:41:04;;;;;;;3.23;1.70;;;;;;;8.98;100.00;97565.59;5096828;28;20204;-74
2023/12/12 01:43:32;;;;;;;4.73;1.40;;;;;;;9.04;100.00;97556.75;5096792;28;20210;-74
2023/12/12 01:46:03;;;;;;;3.87;1.37;;;;;;;8.98;100.00;97558.47;5096723;28;20220;-74
2023/12/12 01:48:30;;;;;;;4.43;1.40;;;;;;;9.01;100.00;97551.91;5096528;28;20214;-74
2023/12/12 01:50:57;;;;;;;3.00;1.67;;;;;;;8.99;100.00;97554.78;5096575;28;20223;-74
2023/12/12 01:53:29;;;;;;;4.87;1.60;;;;;;;8.97;100.00;97550.75;5096150;28;20657;-74
2023/12/12 01:55:56;;;;;;;5.40;1.53;;;;;;;9.02;100.00;97558.84;5095790;28;20184;-74
2023/12/12 01:58:25;;;;;;;2.93;1.23;;;;;;;8.98;100.00;97552.34;5096464;28;20206;-74
2023/12/12 02:00:53;;;;;;;3.60;1.40;;;;;;;8.92;100.00;97554.03;5096411;28;20227;-74
2023/12/12 02:03:20;;;;;;;5.43;1.50;;;;;;;8.86;100.00;97554.94;5096376;28;20207;-74
2023/12/12 02:05:48;;;;;;;5.50;2.00;;;;;;;8.88;100.00;97547.56;5095921;28;20691;-74
2023/12/12 02:08:15;;;;;;;4.60;1.53;;;;;;;8.88;100.00;97542.25;5095955;28;20608;-74
2023/12/12 02:10:41;;;;;;;4.03;1.30;;;;;;;8.87;100.00;97540.63;5096394;28;20220;-74
2023/12/12 02:13:08;;;;;;;3.33;1.43;;;;;;;8.92;100.00;97546.09;5096148;28;20212;-74
2023/12/12 02:15:34;;;;;;;4.87;1.40;;;;;;;8.95;100.00;97547.47;5096135;28;20195;-74
2023/12/12 02:18:01;;;;;;;5.37;1.30;;;;;;;8.91;100.00;97551.63;5096191;28;20211;-74
2023/12/12 02:20:27;;;;;;;5.00;1.27;;;;;;;8.90;100.00;97544.69;5096002;28;20230;-74
2023/12/12 02:22:53;;;;;;;2.77;1.30;;;;;;;8.91;100.00;97541.81;5096010;28;20207;-74
2023/12/12 02:25:20;;;;;;;5.33;1.10;;;;;;;8.88;100.00;97533.50;5096022;28;20224;-74
2023/12/12 02:27:47;;;;;;;4.60;1.40;;;;;;;8.80;100.00;97526.66;5095628;28;20208;-74
2023/12/12 02:30:16;;;;;;;2.63;1.20;;;;;;;8.74;100.00;97513.47;5095774;28;20223;-74
2023/12/12 02:32:43;;;;;;;6.67;1.50;;;;;;;8.67;100.00;97510.91;5095889;28;20208;-74
2023/12/12 02:35:09;;;;;;;4.37;1.10;;;;;;;8.59;100.00;97518.31;5095781;28;20200;-74
2023/12/12 02:37:35;;;;;;;2.27;1.00;;;;;;;8.48;100.00;97522.50;5095488;28;20574;-74
2023/12/12 02:40:02;;;;;;;2.00;1.10;;;;;;;8.40;100.00;97527.25;5095550;28;20231;-74
2023/12/12 02:42:28;;;;;;;3.10;1.27;;;;;;;8.22;100.00;97525.38;5095636;28;20206;-74
2023/12/12 02:44:57;;;;;;;7.67;1.60;;;;;;;8.14;100.00;97532.78;5095587;28;20204;-74
2023/12/12 02:47:23;;;;;;;5.33;1.40;;;;;;;8.23;100.00;97534.16;5095449;28;20219;-74
2023/12/12 02:49:50;;;;;;;6.90;1.43;;;;;;;8.36;100.00;97520.78;5095518;28;20570;-74
2023/12/12 02:52:17;;;;;;;3.90;1.30;;;;;;;8.42;100.00;97530.50;5095475;28;20210;-74
2023/12/12 02:54:44;;;;;;;3.43;1.37;;;;;;;8.44;100.00;97523.16;5095415;28;20572;-74
2023/12/12 02:57:10;;;;;;;2.27;1.10;;;;;;;8.50;100.00;97519.63;5095015;28;20684;-74
2023/12/12 02:59:36;;;;;;;3.50;1.27;;;;;;;8.54;100.00;97523.44;5094768;28;20709;-74
2023/12/12 03:02:03;;;;;;;3.90;1.17;;;;;;;8.54;100.00;97526.91;5094936;28;20693;-74
2023/12/12 03:04:29;;;;;;;3.43;1.20;;;;;;;8.53;100.00;97535.91;5094862;28;20709;-74
2023/12/12 03:06:55;;;;;;;2.07;1.10;;;;;;;8.55;100.00;97527.75;5094619;28;20698;-74
2023/12/12 03:09:22;;;;;;;2.93;1.10;;;;;;;8.55;100.00;97520.59;5094932;28;20760;-74
2023/12/12 03:11:51;;;;;;;4.63;1.27;;;;;;;8.50;100.00;97519.63;5094768;28;20217;-74
2023/12/12 03:14:18;;;;;;;5.80;1.40;;;;;;;8.51;100.00;97522.06;5094737;28;20204;-74
2023/12/12 03:16:44;;;;;;;6.13;1.23;;;;;;;8.55;100.00;97527.75;5095013;28;20202;-74
2023/12/12 03:19:09;;;;;;;3.10;1.00;;;;;;;8.45;100.00;97533.53;5094810;28;20220;-74
2023/12/12 03:21:36;;;;;;;5.63;1.10;;;;;;;8.49;100.00;97523.31;5094720;28;20298;-74
2023/12/12 03:24:02;;;;;;;3.13;1.00;;;;;;;8.43;100.00;97517.06;5094451;28;20580;-74
2023/12/12 03:26:29;;;;;;;3.50;1.20;;;;;;;8.46;100.00;97506.00;5094633;28;20582;-74
2023/12/12 03:28:55;;;;;;;2.30;1.27;;;;;;;8.52;100.00;97499.03;5094684;28;20602;-74
2023/12/12 03:31:21;;;;;;;1.60;1.03;;;;;;;8.49;100.00;97499.47;5094656;28;20566;-74
2023/12/12 03:33:51;;;;;;;2.67;1.10;;;;;;;8.40;100.00;97498.94;5094529;28;20204;-74
2023/12/12 03:36:18;;;;;;;2.67;1.10;;;;;;;8.42;100.00;97488.94;5094123;28;20204;-74
2023/12/12 03:38:44;;;;;;;2.30;1.10;;;;;;;8.39;100.00;97501.81;5094495;28;20203;-74
2023/12/12 03:41:12;;;;;;;2.93;1.17;;;;;;;8.44;100.00;97499.31;5094279;28;20204;-74
2023/12/12 03:43:38;;;;;;;4.53;1.20;;;;;;;8.51;100.00;97502.72;5094477;28;20269;-74
2023/12/12 03:46:05;;;;;;;6.03;1.20;;;;;;;8.55;100.00;97503.91;5094241;28;20226;-74
2023/12/12 03:48:31;;;;;;;1.60;0.83;;;;;;;8.65;100.00;97493.59;5093996;28;20219;-74
2023/12/12 03:50:58;;;;;;;2.27;1.07;;;;;;;8.60;100.00;97488.94;5093837;28;20234;-74
2023/12/12 03:53:24;;;;;;;3.20;1.10;;;;;;;8.62;100.00;97470.19;5094566;28;20204;-74
2023/12/12 03:55:51;;;;;;;2.67;1.37;;;;;;;8.57;100.00;97470.84;5094179;28;20200;-74
2023/12/12 03:58:17;;;;;;;4.20;1.10;;;;;;;8.55;100.00;97477.41;5094159;28;20206;-74
2023/12/12 04:00:43;;;;;;;2.70;0.80;;;;;;;8.51;100.00;97468.28;5094048;28;20224;-74
2023/12/12 04:03:10;;;;;;;3.70;1.23;;;;;;;8.39;100.00;97467.38;5094033;28;20569;-74
2023/12/12 04:05:36;;;;;;;1.67;0.93;;;;;;;8.24;100.00;97469.56;5093836;28;20228;-74
2023/12/12 04:08:02;;;;;;;4.20;1.23;;;;;;;8.08;100.00;97465.59;5093968;28;20206;-74
2023/12/12 04:10:29;;;;;;;3.27;1.00;;;;;;;8.09;100.00;97464.56;5094391;28;20349;-74
2023/12/12 04:12:56;;;;;;;4.53;1.33;;;;;;;8.09;100.00;97455.81;5093749;28;20204;-74
2023/12/12 04:15:23;;;;;;;1.93;1.10;;;;;;;8.06;100.00;97451.75;5093887;28;20253;-74
2023/12/12 04:17:49;;;;;;;2.20;1.10;;;;;;;8.14;100.00;97454.13;5093557;28;20569;-74
2023/12/12 04:20:15;;;;;;;1.30;0.90;;;;;;;8.10;100.00;97454.81;5092919;28;20714;-74
2023/12/12 04:22:42;;;;;;;3.50;1.10;;;;;;;8.03;100.00;97446.94;5093788;28;20200;-74
2023/12/12 04:25:08;;;;;;;2.97;1.10;;;;;;;7.97;100.00;97446.97;5093359;28;20210;-74
2023/12/12 04:27:35;;;;;;;3.03;1.07;;;;;;;7.83;100.00;97450.75;5093540;28;20207;-74
2023/12/12 04:30:02;;;;;;;2.17;0.83;;;;;;;7.99;100.00;97458.16;5093651;28;20223;-74
2023/12/12 04:32:28;;;;;;;1.47;1.13;;;;;;;7.93;100.00;97462.50;5093491;28;20248;-74
2023/12/12 04:34:55;;;;;;;4.50;1.10;;;;;;;7.86;100.00;97445.84;5093313;28;20207;-74
2023/12/12 04:37:21;;;;;;;1.73;0.90;;;;;;;7.73;100.00;97451.25;5093395;28;20246;-74
2023/12/12 04:39:47;;;;;;;2.93;1.10;;;;;;;7.74;100.00;97446.78;5093135;28;20220;-74
2023/12/12 04:42:14;;;;;;;3.40;1.20;;;;;;;7.72;100.00;97454.09;5092952;28;20208;-74
2023/12/12 04:44:44;;;;;;;0.90;0.80;;;;;;;7.82;100.00;97459.72;5093141;28;20231;-74
2023/12/12 04:47:11;;;;;;;1.87;0.83;;;;;;;7.98;100.00;97453.88;5092848;28;21010;-74
2023/12/12 04:49:37;;;;;;;2.13;1.10;;;;;;;7.97;100.00;97445.13;5093167;28;20219;-74
2023/12/12 04:52:04;;;;;;;2.80;0.97;;;;;;;7.90;100.00;97439.09;5093270;28;20572;-74
2023/12/12 04:54:30;;;;;;;2.60;0.90;;;;;;;7.84;100.00;97437.31;5093985;28;20230;-74
2023/12/12 04:56:57;;;;;;;3.37;1.00;;;;;;;7.84;100.00;97439.97;5092983;28;20207;-74
2023/12/12 04:59:23;;;;;;;3.87;1.27;;;;;;;7.85;100.00;97435.47;5093404;28;20231;-74
2023/12/12 05:01:50;;;;;;;2.07;1.00;;;;;;;7.71;100.00;97426.03;5093146;28;20310;-74
2023/12/12 05:04:16;;;;;;;2.93;1.17;;;;;;;7.69;100.00;97433.38;5093073;28;20200;-74
2023/12/12 05:06:45;;;;;;;3.60;1.00;;;;;;;7.63;100.00;97428.94;5092944;28;20223;-74
2023/12/12 05:09:18;;;;;;;3.60;1.17;;;;;;;7.54;100.00;97432.88;5092641;28;20224;-74
2023/12/12 05:11:50;;;;;;;2.37;1.20;;;;;;;7.45;100.00;97434.16;5093276;28;20242;-74
2023/12/12 05:14:18;;;;;;;3.27;1.40;;;;;;;7.37;100.00;97437.06;5092631;28;20290;-74
2023/12/12 05:16:44;;;;;;;4.27;1.20;;;;;;;7.25;100.00;97444.88;5092436;28;20651;-74
2023/12/12 05:19:11;;;;;;;3.70;1.30;;;;;;;7.28;100.00;97451.56;5092610;28;20325;-74
2023/12/12 05:21:37;;;;;;;4.83;2.10;;;;;;;7.34;100.00;97450.72;5092559;28;20204;-74
2023/12/12 05:24:04;;;;;;;4.33;2.17;;;;;;;7.34;100.00;97446.22;5092463;28;20210;-74
2023/12/12 05:26:30;;;;;;;4.60;2.03;;;;;;;7.41;100.00;97436.41;5092756;28;20269;-74
2023/12/12 05:28:57;;;;;;;4.73;2.50;;;;;;;7.43;100.00;97438.84;5092445;28;20231;-74
2023/12/12 05:31:24;;;;;;;6.73;2.50;;;;;;;7.43;100.00;97439.66;5094120;28;20207;-74
2023/12/12 05:33:50;;;;;;;6.27;2.83;;;;;;;7.42;100.00;97435.38;5096676;28;20350;-74
2023/12/12 05:36:17;;;;;;;5.77;2.60;;;;;;;7.46;100.00;97443.72;5096188;28;20201;-74
2023/12/12 05:38:43;;;;;;;6.07;2.60;;;;;;;7.49;100.00;97440.63;5096571;28;20293;-74
2023/12/12 05:41:10;;;;;;;5.03;2.97;;;;;;;7.53;100.00;97440.00;5096427;28;20555;-74
2023/12/12 05:43:36;;;;;;;10.67;3.10;;;;;;;7.55;100.00;97423.94;5096012;28;20249;-74
2023/12/12 05:46:04;;;;;;;7.67;2.97;;;;;;;7.57;100.00;97419.22;5096365;28;20220;-74
2023/12/12 05:48:30;;;;;;;5.77;3.10;;;;;;;7.60;100.00;97413.50;5096122;28;20212;-74
2023/12/12 05:50:57;;;;;;;6.00;2.70;;;;;;;7.61;100.00;97415.91;5096027;28;20305;-74
2023/12/12 05:53:24;;;;;;;6.63;2.70;;;;;;;7.55;100.00;97411.50;5096333;28;20210;-74
2023/12/12 05:55:50;;;;;;;9.27;3.00;;;;;;;7.57;100.00;97416.56;5095924;28;20214;-74
2023/12/12 05:58:17;;;;;;;5.50;3.00;;;;;;;7.58;100.00;97415.53;5095872;28;20567;-74
2023/12/12 06:00:43;;;;;;;6.70;2.70;;;;;;;7.63;100.00;97418.34;5096130;28;20267;-74
2023/12/12 06:03:09;;;;;;;7.20;2.67;;;;;;;7.54;100.00;97417.81;5096035;28;20567;-74
2023/12/12 06:05:36;;;;;;;7.90;2.90;;;;;;;7.56;100.00;97421.03;5095258;28;20670;-74
2023/12/12 06:08:02;;;;;;;6.60;2.70;;;;;;;7.60;100.00;97419.59;5095715;28;20208;-74
2023/12/12 06:10:28;;;;;;;7.27;2.90;;;;;;;7.57;100.00;97427.16;5096166;28;20219;-73
2023/12/12 06:12:55;;;;;;;5.83;2.47;;;;;;;7.62;100.00;97422.03;5095912;28;20204;-74
2023/12/12 06:15:21;;;;;;;7.47;2.70;;;;;;;7.63;100.00;97421.81;5095659;28;20210;-74
2023/12/12 06:17:47;;;;;;;9.00;2.90;;;;;;;7.60;100.00;97427.53;5095953;28;20196;-74
2023/12/12 06:20:14;;;;;;;7.17;2.53;;;;;;;7.66;100.00;97423.22;5095597;28;20231;-74
2023/12/12 06:22:40;;;;;;;5.23;2.90;;;;;;;7.63;100.00;97429.75;5095677;28;20204;-74
2023/12/12 06:25:08;;;;;;;8.23;3.10;;;;;;;7.60;100.00;97424.09;5095588;28;20573;-74
2023/12/12 06:27:34;;;;;;;8.03;3.60;;;;;;;7.57;100.00;97414.75;5094874;28;20224;-74
2023/12/12 06:30:01;;;;;;;7.70;3.27;;;;;;;7.61;100.00;97415.13;5094905;28;20736;-74
2023/12/12 06:32:27;;;;;;;9.10;3.20;;;;;;;7.58;100.00;97410.25;5095051;28;20663;-74
2023/12/12 06:34:54;;;;;;;6.90;2.57;;;;;;;7.55;100.00;97419.44;5095236;28;20298;-74
2023/12/12 06:37:20;;;;;;;10.70;3.03;;;;;;;7.54;100.00;97423.09;5095550;28;20299;-76
2023/12/12 06:39:46;;;;;;;12.20;2.90;;;;;;;7.53;100.00;97423.31;5094818;28;20228;-75
2023/12/12 06:42:13;;;;;;;8.37;2.80;;;;;;;7.70;100.00;97403.25;5095033;28;20208;-74
2023/12/12 06:44:40;;;;;;;8.30;2.80;;;;;;;7.63;100.00;97394.53;5094858;28;20210;-73
2023/12/12 06:47:06;;;;;;;8.77;2.83;;;;;;;7.58;100.00;97389.09;5093871;28;20321;-73
2023/12/12 06:49:33;;;;;;;3.73;2.10;;;;;;;7.50;100.00;97392.00;5094469;28;20223;-73
2023/12/12 06:52:01;;;;;;;8.03;2.47;;;;;;;7.51;100.00;97378.56;5094494;28;20235;-73
2023/12/12 06:54:27;;;;;;;6.90;2.43;;;;;;;7.55;100.00;97373.69;5094277;28;20262;-73
2023/12/12 06:56:54;;;;;;;3.53;2.33;;;;;;;7.51;100.00;97377.78;5094813;28;20204;-73
2023/12/12 06:59:20;;;;;;;7.97;3.20;;;;;;;7.54;100.00;97374.69;5094232;28;20257;-73
2023/12/12 07:01:47;;;;;;;4.97;2.60;;;;;;;7.54;100.00;97399.31;5094057;28;20290;-73
2023/12/12 07:04:14;;;;;;;6.87;2.33;;;;;;;7.55;100.00;97390.34;5095173;28;20207;-73
2023/12/12 07:06:41;;;;;;;8.07;3.40;;;;;;;7.58;100.00;97375.88;5094393;28;20728;-73
2023/12/12 07:09:10;;;;;;;6.80;3.40;;;;;;;7.56;100.00;97376.06;5093810;28;20277;-73
2023/12/12 07:11:37;;;;;;;14.90;4.07;;;;;;;7.59;100.00;97386.25;5094147;28;20209;-73
2023/12/12 07:14:03;;;;;;;9.87;3.83;;;;;;;7.56;100.00;97386.66;5093660;28;20212;-75
2023/12/12 07:16:30;;;;;;;12.57;4.13;;;;;;;7.59;100.00;97382.78;5094168;28;20208;-75
2023/12/12 07:18:58;;;;;;;11.93;3.50;;;;;;;7.59;100.00;97380.94;5094240;28;20224;-73
2023/12/12 07:21:24;;;;;;;9.03;3.97;;;;;;;7.61;100.00;97386.81;5094315;28;20208;-73
2023/12/12 07:23:51;;;;;;;11.07;3.63;;;;;;;7.67;100.00;97391.25;5093961;28;20299;-73
2023/12/12 07:26:21;;;;;;;10.70;3.30;;;;;;;7.66;100.00;97391.47;5093960;28;20246;-73
2023/12/12 07:28:47;;;;;;;9.17;3.10;;;;;;;7.71;100.00;97402.22;5093673;28;20235;-73
2023/12/12 07:31:14;;;;;;;11.20;3.17;;;;;;;7.70;100.00;97406.69;5094616;28;20200;-73
2023/12/12 07:33:40;;;;;;;12.63;3.17;;;;;;;7.73;100.00;97410.72;5094211;28;20253;-73
2023/12/12 07:36:07;;;;;;;7.13;3.30;;;;;;;7.71;100.00;97405.69;5093866;28;20203;-73
2023/12/12 07:38:37;;;;;;;8.60;3.30;;;;;;;7.72;100.00;97403.81;5093560;28;20681;-73
2023/12/12 07:41:03;;;;;;;5.37;3.27;;;;;;;7.70;100.00;97405.88;5093556;28;20200;-74
2023/12/12 07:43:29;;;;;;;6.63;2.70;;;;;;;7.73;100.00;97394.84;5093776;28;20283;-73
2023/12/12 07:45:56;;;;;;;3.73;2.50;;;;;;;7.69;100.00;97381.25;5093376;28;20218;-74
2023/12/12 07:48:22;;;;;;;6.97;2.97;;;;;;;7.67;100.00;97371.94;5093285;28;20226;-73
2023/12/12 07:50:49;;;;;;;8.03;2.67;;;;;;;7.66;100.00;97372.97;5093510;28;20230;-73
2023/12/12 07:53:15;;;;;;;4.63;2.30;;;;;;;7.65;100.00;97381.94;5093236;28;20753;-73
2023/12/12 07:55:42;;;;;;;6.03;2.17;;;;;;;7.60;100.00;97385.22;5092981;28;20199;-73
2023/12/12 07:58:08;;;;;;;6.33;2.63;;;;;;;7.62;100.00;97390.28;5093578;28;20210;-73
2023/12/12 08:00:34;;;;;;;8.97;2.13;;;;;;;7.64;100.00;97380.31;5093531;28;20219;-73
2023/12/12 08:03:03;;;;;;;7.10;2.27;;;;;;;7.65;100.00;97382.72;5093189;28;20744;-73
2023/12/12 08:05:29;;;;;;;4.17;2.20;;;;;;;7.65;100.00;97379.28;5093454;28;20212;-73
2023/12/12 08:07:56;;;;;;;5.77;2.20;;;;;;;7.72;100.00;97385.31;5093629;28;20227;-73
2023/12/12 08:10:23;;;;;;;6.60;2.10;;;;;;;7.79;100.00;97386.88;5093124;28;20737;-73
2023/12/12 08:12:49;;;;;;;5.80;2.13;;;;;;;7.85;100.00;97380.72;5092580;28;20666;-73
2023/12/12 08:15:16;;;;;;;9.83;2.63;;;;;;;7.83;100.00;97368.75;5093266;28;20204;-73
2023/12/12 08:17:41;;;;;;;9.77;2.77;;;;;;;7.89;100.00;97367.84;5093442;28;20200;-73
2023/12/12 08:20:08;;;;;;;5.83;2.60;;;;;;;7.86;100.00;97355.06;5093264;28;20226;-73
2023/12/12 08:22:35;;;;;;;6.20;2.20;;;;;;;7.88;100.00;97353.81;5092898;28;20278;-73
2023/12/12 08:25:01;;;;;;;5.20;2.53;;;;;;;7.90;100.00;97359.69;5092957;28;20299;-74
2023/12/12 08:27:28;;;;;;;5.90;2.60;;;;;;;7.94;100.00;97363.53;5093083;28;20255;-74
2023/12/12 08:29:54;;;;;;;6.00;2.63;;;;;;;7.96;100.00;97350.88;5093605;28;20238;-73
2023/12/12 08:32:20;;;;;;;6.33;2.70;;;;;;;8.01;100.00;97337.00;5093349;28;20212;-73
2023/12/12 08:34:47;;;;;;;5.07;2.43;;;;;;;8.03;100.00;97322.53;5093304;28;20207;-73
2023/12/12 08:37:13;;;;;;;4.63;2.20;;;;;;;8.09;100.00;97323.44;5093284;28;20207;-73
2023/12/12 08:39:40;;;;;;;3.47;2.60;;;;;;;8.07;100.00;97317.59;5092363;28;20331;-73
2023/12/12 08:42:06;;;;;;;4.07;2.10;;;;;;;8.04;100.00;97321.47;5093251;28;20325;-73
2023/12/12 08:44:32;;;;;;;4.67;2.00;;;;;;;8.03;100.00;97308.47;5093078;28;20226;-73
2023/12/12 08:46:59;;;;;;;3.07;2.10;;;;;;;8.05;100.00;97307.22;5092578;28;20575;-73
2023/12/12 08:49:26;;;;;;;3.63;2.30;;;;;;;8.06;100.00;97308.81;5093371;28;20228;-74
2023/12/12 08:51:53;;;;;;;3.03;1.97;;;;;;;8.10;100.00;97309.22;5093106;28;20298;-75
2023/12/12 08:54:19;;;;;;;7.33;2.73;;;;;;;8.20;100.00;97317.44;5092513;28;20204;-73
2023/12/12 08:56:52;;;;;;;3.23;2.17;;;;;;;8.30;100.00;97305.31;5092741;28;20213;-73
2023/12/12 08:59:21;;;;;;;3.77;1.90;;;;;;;8.33;100.00;97310.16;5092962;28;20231;-73
2023/12/12 09:01:47;;;;;;;3.00;2.10;;;;;;;8.40;100.00;97308.25;5092916;28;20233;-73
2023/12/12 09:04:16;;;;;;;6.37;2.17;;;;;;;8.40;100.00;97310.06;5092804;28;20210;-73
2023/12/12 09:06:45;;;;;;;4.90;2.20;;;;;;;8.47;100.00;97306.31;5095997;28;20224;-73
2023/12/12 09:09:12;;;;;;;6.73;2.03;;;;;;;8.52;100.00;97309.13;5097022;28;20284;-73
2023/12/12 09:11:39;;;;;;;5.20;2.23;;;;;;;8.51;100.00;97301.41;5097557;28;20200;-73
2023/12/12 09:14:07;;;;;;;3.80;1.90;;;;;;;8.55;100.00;97311.31;5096447;28;20207;-73
2023/12/12 09:16:34;;;;;;;3.87;2.27;;;;;;;8.55;100.00;97307.88;5096910;28;20200;-73
2023/12/12 09:19:00;;;;;;;3.10;1.90;;;;;;;8.61;100.00;97301.66;5096699;28;20232;-73
2023/12/12 09:21:27;;;;;;;5.73;2.10;;;;;;;8.63;100.00;97307.53;5096858;28;20200;-75
2023/12/12 09:23:53;;;;;;;6.47;2.30;;;;;;;8.57;100.00;97309.25;5096731;28;20261;-74
2023/12/12 09:26:20;;;;;;;3.93;2.10;;;;;;;8.54;100.00;97307.03;5096551;28;20204;-73
2023/12/12 09:28:47;;;;;;;3.73;1.80;;;;;;;8.63;100.00;97302.22;5096172;28;20294;-73
2023/12/12 09:31:13;;;;;;;3.67;1.80;;;;;;;8.59;100.00;97288.63;5096550;28;20252;-73
2023/12/12 09:33:40;;;;;;;4.90;1.87;;;;;;;8.56;100.00;97283.00;5096154;28;20242;-73
2023/12/12 09:36:07;;;;;;;7.57;1.93;;;;;;;8.59;100.00;97277.22;5096695;28;20576;-73
2023/12/12 09:38:33;;;;;;;3.83;1.57;;;;;;;8.60;100.00;97265.63;5096015;28;20659;-73
2023/12/12 09:41:03;;;;;;;3.20;2.00;;;;;;;8.67;100.00;97264.47;5096005;28;20208;-74
2023/12/12 09:43:30;;;;;;;2.63;2.23;;;;;;;8.68;100.00;97263.44;5095990;28;20229;-74
2023/12/12 09:45:58;;;;;;;2.77;2.03;;;;;;;8.67;100.00;97258.38;5096233;28;20204;-73
2023/12/12 09:48:25;;;;;;;3.63;2.00;;;;;;;8.72;100.00;97261.13;5077806;28;20224;-73
2023/12/12 09:50:56;;;;;;;10.20;2.33;;;;;;;8.67;100.00;97251.22;5096011;28;20219;-73
2023/12/12 09:53:24;;;;;;;7.13;2.50;;;;;;;8.66;100.00;97248.81;5096400;28;20199;-73
2023/12/12 09:55:51;;;;;;;6.03;2.53;;;;;;;8.67;100.00;97245.13;5096012;28;20210;-73
2023/12/12 09:58:17;;;;;;;3.67;2.37;;;;;;;8.66;100.00;97240.84;5095885;28;20199;-73
2023/12/12 10:00:44;;;;;;;4.07;2.23;;;;;;;8.70;100.00;97236.72;5096241;28;20226;-73
2023/12/12 10:03:11;;;;;;;6.73;2.60;;;;;;;8.72;100.00;97230.16;5095584;28;20203;-73
2023/12/12 10:05:38;;;;;;;5.33;2.30;;;;;;;8.78;100.00;97226.59;5095947;28;20200;-75
2023/12/12 10:08:06;;;;;;;3.60;2.10;;;;;;;8.72;100.00;97216.09;5096147;28;20230;-75
2023/12/12 10:10:32;;;;;;;2.87;2.13;;;;;;;8.76;100.00;97212.78;5095477;28;20224;-74
2023/12/12 10:12:58;;;;;;;3.50;1.80;;;;;;;8.84;100.00;97215.09;5095843;28;20211;-74
2023/12/12 10:15:28;;;;;;;3.70;2.00;;;;;;;8.85;100.00;97213.25;5095374;28;20222;-74
2023/12/12 10:17:59;;;;;;;3.67;1.60;;;;;;;8.91;100.00;97207.84;5100743;28;20200;-75
2023/12/12 10:20:30;;;;;;;5.57;2.13;;;;;;;8.80;100.00;97206.00;5096774;28;20230;-74
2023/12/12 10:23:04;;;;;;;3.73;1.97;;;;;;;8.85;100.00;97202.63;5096010;28;20192;-75
2023/12/12 10:25:35;;;;;;;2.10;1.70;;;;;;;8.85;100.00;97194.69;5095793;28;20188;-75
2023/12/12 10:28:02;;;;;;;2.33;1.90;;;;;;;8.78;100.00;97184.19;5095664;28;20304;-75
2023/12/12 10:30:28;;;;;;;6.20;2.07;;;;;;;8.77;100.00;97185.22;5095299;28;20230;-75
2023/12/12 10:32:55;;;;;;;3.03;2.43;;;;;;;8.72;100.00;97194.91;5095176;28;20685;-75
2023/12/12 10:35:23;;;;;;;3.30;2.27;;;;;;;8.76;100.00;97183.63;5095064;28;20741;-75
2023/12/12 10:37:53;;;;;;;4.60;2.40;;;;;;;8.74;100.00;97184.88;5095410;28;20206;-75
2023/12/12 10:40:22;;;;;;;4.53;2.30;;;;;;;8.73;100.00;97172.69;5095670;28;20219;-75
2023/12/12 10:42:49;;;;;;;6.00;2.53;;;;;;;8.89;100.00;97172.00;5095163;28;20200;-75
2023/12/12 10:45:17;;;;;;;4.93;2.30;;;;;;;8.83;100.00;97151.72;5094776;28;20206;-75
2023/12/12 10:47:48;;;;;;;4.67;2.10;;;;;;;8.76;100.00;97153.66;5094746;28;20230;-75
2023/12/12 10:50:16;;;;;;;4.67;2.10;;;;;;;8.73;100.00;97151.50;5094722;28;20234;-73
2023/12/12 10:52:48;;;;;;;5.20;2.10;;;;;;;8.69;100.00;97119.31;5094662;28;20204;-73
2023/12/12 10:55:16;;;;;;;2.57;1.87;;;;;;;8.79;100.00;97132.00;5094669;28;20192;-73
2023/12/12 10:57:44;;;;;;;2.87;1.90;;;;;;;8.74;100.00;97108.84;5094473;28;20196;-73
2023/12/12 11:00:15;;;;;;;2.37;1.50;;;;;;;8.82;100.00;97103.19;5094396;28;20311;-72
2023/12/12 11:02:43;;;;;;;2.50;1.57;;;;;;;8.88;100.00;97088.22;5094773;28;20189;-72
2023/12/12 11:05:13;;;;;;;3.33;1.83;;;;;;;9.06;100.00;97082.78;5094664;28;20204;-72
2023/12/12 11:07:42;;;;;;;2.07;1.70;;;;;;;8.98;100.00;97085.78;5093989;28;20219;-72
2023/12/12 11:10:12;;;;;;;4.40;2.00;;;;;;;9.06;100.00;97075.63;5094316;28;20220;-72
2023/12/12 11:13:01;;;;;;;2.10;1.60;;;;;;;9.19;100.00;97069.28;5094341;28;20219;-75
2023/12/12 11:15:29;;;;;;;2.33;1.70;;;;;;;9.24;100.00;97062.22;5094264;28;20207;-77
2023/12/12 11:17:55;;;;;;;2.20;1.30;;;;;;;9.29;100.00;97048.28;5094284;28;20325;-75
2023/12/12 11:20:22;;;;;;;1.60;1.20;;;;;;;9.37;100.00;97035.44;5094185;28;20250;-75
2023/12/12 11:22:51;;;;;;;2.73;1.00;;;;;;;9.43;100.00;97054.91;5094132;28;20214;-75
2023/12/12 11:25:22;;;;;;;2.43;1.00;;;;;;;9.52;100.00;97061.47;5093925;28;20227;-76
2023/12/12 11:27:54;;;;;;;1.03;0.93;;;;;;;9.52;100.00;97048.19;5094239;28;20268;-76
2023/12/12 11:30:39;;;;;;;2.43;1.20;;;;;;;9.60;100.00;97050.47;5093114;28;20242;-76
2023/12/12 11:33:11;;;;;;;0.93;0.83;;;;;;;9.67;100.00;97045.81;5094108;28;20190;-77